sensor_id;sensor_type;location;lat;lon;timestamp;temperature;humidity
25753;DHT22;13600;50.816;4.416;2023-07-13T00:02:23;18.80;99.90
25753;DHT22;13600;50.816;4.416;2023-07-13T00:04:49;18.60;99.90
25753;DHT22;13600;50.816;4.416;2023-07-13T00:07:16;18.60;99.90
25753;DHT22;13600;50.816;4.416;2023-07-13T00:09:46;18.50;99.90
25753;DHT22;13600;50.816;4.416;2023-07-13T00:12:29;18.50;99.90
25753;DHT22;13600;50.816;4.416;2023-07-13T00:14:57;18.40;99.90
25753;DHT22;13600;50.816;4.416;2023-07-13T00:17:24;18.40;99.90
25753;DHT22;13600;50.816;4.416;2023-07-13T00:19:50;18.40;99.90
25753;DHT22;13600;50.816;4.416;2023-07-13T00:22:15;18.40;99.90
25753;DHT22;13600;50.816;4.416;2023-07-13T00:24:44;18.30;99.90
25753;DHT22;13600;50.816;4.416;2023-07-13T00:27:09;18.40;99.90
25753;DHT22;13600;50.816;4.416;2023-07-13T00:29:35;18.50;99.90
25753;DHT22;13600;50.816;4.416;2023-07-13T00:32:05;18.40;99.90
25753;DHT22;13600;50.816;4.416;2023-07-13T00:34:31;18.30;99.90
25753;DHT22;13600;50.816;4.416;2023-07-13T00:36:57;18.40;99.90
25753;DHT22;13600;50.816;4.416;2023-07-13T00:39:23;18.50;99.90
25753;DHT22;13600;50.816;4.416;2023-07-13T00:41:49;18.50;99.90
25753;DHT22;13600;50.816;4.416;2023-07-13T00:44:17;18.50;99.90
25753;DHT22;13600;50.816;4.416;2023-07-13T00:46:42;18.40;99.90
25753;DHT22;13600;50.816;4.416;2023-07-13T00:49:13;18.30;99.90
25753;DHT22;13600;50.816;4.416;2023-07-13T00:51:50;18.30;99.90
25753;DHT22;13600;50.816;4.416;2023-07-13T00:54:41;18.30;99.90
25753;DHT22;13600;50.816;4.416;2023-07-13T00:57:12;18.20;99.90
25753;DHT22;13600;50.816;4.416;2023-07-13T00:59:42;18.30;99.90
25753;DHT22;13600;50.816;4.416;2023-07-13T01:02:08;18.30;99.90
25753;DHT22;13600;50.816;4.416;2023-07-13T01:04:34;18.10;99.90
25753;DHT22;13600;50.816;4.416;2023-07-13T01:07:00;18.10;99.90
25753;DHT22;13600;50.816;4.416;2023-07-13T01:09:26;18.10;99.90
25753;DHT22;13600;50.816;4.416;2023-07-13T01:11:52;18.00;99.90
25753;DHT22;13600;50.816;4.416;2023-07-13T01:14:18;18.10;99.90
25753;DHT22;13600;50.816;4.416;2023-07-13T01:16:46;18.20;99.90
25753;DHT22;13600;50.816;4.416;2023-07-13T01:22:06;18.00;99.90
25753;DHT22;13600;50.816;4.416;2023-07-13T01:24:35;18.10;99.90
25753;DHT22;13600;50.816;4.416;2023-07-13T01:27:02;18.00;99.90
25753;DHT22;13600;50.816;4.416;2023-07-13T01:29:28;18.00;99.90
25753;DHT22;13600;50.816;4.416;2023-07-13T01:31:53;18.10;99.90
25753;DHT22;13600;50.816;4.416;2023-07-13T01:34:19;18.10;99.90
25753;DHT22;13600;50.816;4.416;2023-07-13T01:36:45;18.20;99.90
25753;DHT22;13600;50.816;4.416;2023-07-13T01:39:10;18.10;99.90
25753;DHT22;13600;50.816;4.416;2023-07-13T01:41:37;18.10;99.90
25753;DHT22;13600;50.816;4.416;2023-07-13T01:44:03;18.10;99.90
25753;DHT22;13600;50.816;4.416;2023-07-13T01:46:28;18.10;99.90
25753;DHT22;13600;50.816;4.416;2023-07-13T01:48:54;18.20;99.90
25753;DHT22;13600;50.816;4.416;2023-07-13T01:51:20;18.10;99.90
25753;DHT22;13600;50.816;4.416;2023-07-13T01:53:46;18.20;99.90
25753;DHT22;13600;50.816;4.416;2023-07-13T01:56:12;18.10;99.90
25753;DHT22;13600;50.816;4.416;2023-07-13T01:58:37;18.10;99.90
25753;DHT22;13600;50.816;4.416;2023-07-13T02:01:03;18.10;99.90
25753;DHT22;13600;50.816;4.416;2023-07-13T02:03:29;17.90;99.90
25753;DHT22;13600;50.816;4.416;2023-07-13T02:05:54;18.00;99.90
25753;DHT22;13600;50.816;4.416;2023-07-13T02:08:20;17.90;99.90
25753;DHT22;13600;50.816;4.416;2023-07-13T02:10:45;18.00;99.90
25753;DHT22;13600;50.816;4.416;2023-07-13T02:13:11;17.90;99.90
25753;DHT22;13600;50.816;4.416;2023-07-13T02:15:40;17.90;99.90
25753;DHT22;13600;50.816;4.416;2023-07-13T02:18:08;17.80;99.90
25753;DHT22;13600;50.816;4.416;2023-07-13T02:20:34;17.70;99.90
25753;DHT22;13600;50.816;4.416;2023-07-13T02:23:00;17.70;99.90
25753;DHT22;13600;50.816;4.416;2023-07-13T02:25:25;17.70;99.90
25753;DHT22;13600;50.816;4.416;2023-07-13T02:27:52;17.60;99.90
25753;DHT22;13600;50.816;4.416;2023-07-13T02:30:18;17.60;99.90
25753;DHT22;13600;50.816;4.416;2023-07-13T02:32:44;17.70;99.90
25753;DHT22;13600;50.816;4.416;2023-07-13T02:35:10;17.70;99.90
25753;DHT22;13600;50.816;4.416;2023-07-13T02:37:36;17.70;99.90
25753;DHT22;13600;50.816;4.416;2023-07-13T02:40:02;17.90;99.90
25753;DHT22;13600;50.816;4.416;2023-07-13T02:42:34;17.80;99.90
25753;DHT22;13600;50.816;4.416;2023-07-13T02:44:59;17.70;99.90
25753;DHT22;13600;50.816;4.416;2023-07-13T02:47:25;17.80;99.90
25753;DHT22;13600;50.816;4.416;2023-07-13T02:49:52;17.80;99.90
25753;DHT22;13600;50.816;4.416;2023-07-13T02:52:18;17.80;99.90
25753;DHT22;13600;50.816;4.416;2023-07-13T02:54:44;17.80;99.90
25753;DHT22;13600;50.816;4.416;2023-07-13T02:57:09;17.70;99.90
25753;DHT22;13600;50.816;4.416;2023-07-13T02:59:35;17.60;99.90
25753;DHT22;13600;50.816;4.416;2023-07-13T03:02:02;17.60;99.90
25753;DHT22;13600;50.816;4.416;2023-07-13T03:04:28;17.60;99.90
25753;DHT22;13600;50.816;4.416;2023-07-13T03:06:54;17.60;99.90
25753;DHT22;13600;50.816;4.416;2023-07-13T03:09:23;17.60;99.90
25753;DHT22;13600;50.816;4.416;2023-07-13T03:11:48;17.50;99.90
25753;DHT22;13600;50.816;4.416;2023-07-13T03:14:14;17.40;99.90
25753;DHT22;13600;50.816;4.416;2023-07-13T03:16:40;17.40;99.90
25753;DHT22;13600;50.816;4.416;2023-07-13T03:19:06;17.30;99.90
25753;DHT22;13600;50.816;4.416;2023-07-13T03:21:31;17.30;99.90
25753;DHT22;13600;50.816;4.416;2023-07-13T03:23:57;17.30;99.90
25753;DHT22;13600;50.816;4.416;2023-07-13T03:26:23;17.20;99.90
25753;DHT22;13600;50.816;4.416;2023-07-13T03:28:48;17.20;99.90
25753;DHT22;13600;50.816;4.416;2023-07-13T03:31:27;17.20;99.90
25753;DHT22;13600;50.816;4.416;2023-07-13T03:33:54;17.20;99.90
25753;DHT22;13600;50.816;4.416;2023-07-13T03:36:23;17.50;99.90
25753;DHT22;13600;50.816;4.416;2023-07-13T03:38:52;17.40;99.90
25753;DHT22;13600;50.816;4.416;2023-07-13T03:41:18;17.30;99.90
25753;DHT22;13600;50.816;4.416;2023-07-13T03:43:44;17.10;99.90
25753;DHT22;13600;50.816;4.416;2023-07-13T03:46:11;17.20;99.90
25753;DHT22;13600;50.816;4.416;2023-07-13T03:48:37;17.10;99.90
25753;DHT22;13600;50.816;4.416;2023-07-13T03:51:02;17.10;99.90
25753;DHT22;13600;50.816;4.416;2023-07-13T03:53:28;17.10;99.90
25753;DHT22;13600;50.816;4.416;2023-07-13T03:55:54;17.20;99.90
25753;DHT22;13600;50.816;4.416;2023-07-13T03:58:26;17.30;99.90
25753;DHT22;13600;50.816;4.416;2023-07-13T04:00:54;17.30;99.90
25753;DHT22;13600;50.816;4.416;2023-07-13T04:03:20;17.30;99.90
25753;DHT22;13600;50.816;4.416;2023-07-13T04:05:45;17.30;99.90
25753;DHT22;13600;50.816;4.416;2023-07-13T04:08:11;17.40;99.90
25753;DHT22;13600;50.816;4.416;2023-07-13T04:10:37;17.40;99.90
25753;DHT22;13600;50.816;4.416;2023-07-13T04:13:04;17.20;99.90
25753;DHT22;13600;50.816;4.416;2023-07-13T04:15:31;17.30;99.90
25753;DHT22;13600;50.816;4.416;2023-07-13T04:17:57;17.40;99.90
25753;DHT22;13600;50.816;4.416;2023-07-13T04:20:24;17.30;99.90
25753;DHT22;13600;50.816;4.416;2023-07-13T04:22:49;17.30;99.90
25753;DHT22;13600;50.816;4.416;2023-07-13T04:25:15;17.40;99.90
25753;DHT22;13600;50.816;4.416;2023-07-13T04:27:41;17.30;99.90
25753;DHT22;13600;50.816;4.416;2023-07-13T04:30:07;17.50;99.90
25753;DHT22;13600;50.816;4.416;2023-07-13T04:32:33;17.60;99.90
25753;DHT22;13600;50.816;4.416;2023-07-13T04:34:59;17.50;99.90
25753;DHT22;13600;50.816;4.416;2023-07-13T04:37:26;17.60;99.90
25753;DHT22;13600;50.816;4.416;2023-07-13T04:39:51;17.70;99.90
25753;DHT22;13600;50.816;4.416;2023-07-13T04:42:17;17.80;99.90
25753;DHT22;13600;50.816;4.416;2023-07-13T04:44:48;17.80;99.90
25753;DHT22;13600;50.816;4.416;2023-07-13T04:47:14;17.80;99.90
25753;DHT22;13600;50.816;4.416;2023-07-13T04:49:40;17.60;99.90
25753;DHT22;13600;50.816;4.416;2023-07-13T04:52:06;17.60;99.90
25753;DHT22;13600;50.816;4.416;2023-07-13T04:54:33;17.70;99.90
25753;DHT22;13600;50.816;4.416;2023-07-13T04:56:59;17.50;99.90
25753;DHT22;13600;50.816;4.416;2023-07-13T04:59:25;17.70;99.90
25753;DHT22;13600;50.816;4.416;2023-07-13T05:01:50;17.60;99.90
25753;DHT22;13600;50.816;4.416;2023-07-13T05:04:16;17.80;99.90
25753;DHT22;13600;50.816;4.416;2023-07-13T05:06:42;17.90;99.90
25753;DHT22;13600;50.816;4.416;2023-07-13T05:09:08;17.90;99.90
25753;DHT22;13600;50.816;4.416;2023-07-13T05:11:34;17.80;99.90
25753;DHT22;13600;50.816;4.416;2023-07-13T05:14:00;18.00;99.90
25753;DHT22;13600;50.816;4.416;2023-07-13T05:16:27;18.10;99.90
25753;DHT22;13600;50.816;4.416;2023-07-13T05:18:53;18.00;99.90
25753;DHT22;13600;50.816;4.416;2023-07-13T05:21:19;17.90;99.90
25753;DHT22;13600;50.816;4.416;2023-07-13T05:23:45;18.00;99.90
25753;DHT22;13600;50.816;4.416;2023-07-13T05:26:11;18.10;99.90
25753;DHT22;13600;50.816;4.416;2023-07-13T05:28:37;18.10;99.90
25753;DHT22;13600;50.816;4.416;2023-07-13T05:31:04;18.10;99.90
25753;DHT22;13600;50.816;4.416;2023-07-13T05:33:30;18.20;99.90
25753;DHT22;13600;50.816;4.416;2023-07-13T05:35:56;18.30;99.90
25753;DHT22;13600;50.816;4.416;2023-07-13T05:38:22;18.30;99.90
25753;DHT22;13600;50.816;4.416;2023-07-13T05:40:49;18.40;99.90
25753;DHT22;13600;50.816;4.416;2023-07-13T05:43:15;18.30;99.90
25753;DHT22;13600;50.816;4.416;2023-07-13T05:45:41;18.30;99.90
25753;DHT22;13600;50.816;4.416;2023-07-13T05:48:07;18.20;99.90
25753;DHT22;13600;50.816;4.416;2023-07-13T05:50:33;18.30;99.90
25753;DHT22;13600;50.816;4.416;2023-07-13T05:52:58;18.40;99.90
25753;DHT22;13600;50.816;4.416;2023-07-13T05:55:24;18.40;99.90
25753;DHT22;13600;50.816;4.416;2023-07-13T05:57:50;18.30;99.90
25753;DHT22;13600;50.816;4.416;2023-07-13T06:00:15;18.40;99.90
25753;DHT22;13600;50.816;4.416;2023-07-13T06:02:42;18.60;99.90
25753;DHT22;13600;50.816;4.416;2023-07-13T06:05:08;18.70;99.90
25753;DHT22;13600;50.816;4.416;2023-07-13T06:07:33;18.80;99.90
25753;DHT22;13600;50.816;4.416;2023-07-13T06:09:59;18.90;99.90
25753;DHT22;13600;50.816;4.416;2023-07-13T06:12:26;18.90;99.90
25753;DHT22;13600;50.816;4.416;2023-07-13T06:14:51;19.00;99.90
25753;DHT22;13600;50.816;4.416;2023-07-13T06:17:17;19.20;99.90
25753;DHT22;13600;50.816;4.416;2023-07-13T06:19:43;19.40;99.90
25753;DHT22;13600;50.816;4.416;2023-07-13T06:22:09;19.60;99.90
25753;DHT22;13600;50.816;4.416;2023-07-13T06:24:35;19.60;99.90
25753;DHT22;13600;50.816;4.416;2023-07-13T06:27:01;19.70;99.90
25753;DHT22;13600;50.816;4.416;2023-07-13T06:29:26;19.60;99.90
25753;DHT22;13600;50.816;4.416;2023-07-13T06:31:52;19.80;99.90
25753;DHT22;13600;50.816;4.416;2023-07-13T06:34:18;19.80;99.90
25753;DHT22;13600;50.816;4.416;2023-07-13T06:36:44;19.90;99.90
25753;DHT22;13600;50.816;4.416;2023-07-13T06:39:10;19.90;99.90
25753;DHT22;13600;50.816;4.416;2023-07-13T06:41:35;19.90;99.90
25753;DHT22;13600;50.816;4.416;2023-07-13T06:44:01;20.10;99.90
25753;DHT22;13600;50.816;4.416;2023-07-13T06:46:28;20.00;99.90
25753;DHT22;13600;50.816;4.416;2023-07-13T06:48:55;19.80;99.90
25753;DHT22;13600;50.816;4.416;2023-07-13T06:51:20;19.80;99.90
25753;DHT22;13600;50.816;4.416;2023-07-13T06:53:46;19.90;99.90
25753;DHT22;13600;50.816;4.416;2023-07-13T06:56:12;19.80;99.90
25753;DHT22;13600;50.816;4.416;2023-07-13T06:58:38;20.00;99.90
25753;DHT22;13600;50.816;4.416;2023-07-13T07:01:04;20.20;99.90
25753;DHT22;13600;50.816;4.416;2023-07-13T07:03:30;20.40;99.90
25753;DHT22;13600;50.816;4.416;2023-07-13T07:06:13;20.40;99.90
25753;DHT22;13600;50.816;4.416;2023-07-13T07:08:40;20.70;99.90
25753;DHT22;13600;50.816;4.416;2023-07-13T07:11:08;20.60;99.90
25753;DHT22;13600;50.816;4.416;2023-07-13T07:13:33;20.80;99.90
25753;DHT22;13600;50.816;4.416;2023-07-13T07:15:59;20.80;99.90
25753;DHT22;13600;50.816;4.416;2023-07-13T07:18:26;20.60;99.90
25753;DHT22;13600;50.816;4.416;2023-07-13T07:20:52;20.50;99.90
25753;DHT22;13600;50.816;4.416;2023-07-13T07:23:17;20.80;99.90
25753;DHT22;13600;50.816;4.416;2023-07-13T07:25:44;21.00;99.90
25753;DHT22;13600;50.816;4.416;2023-07-13T07:28:11;20.80;99.90
25753;DHT22;13600;50.816;4.416;2023-07-13T07:30:36;20.70;99.90
25753;DHT22;13600;50.816;4.416;2023-07-13T07:33:03;21.10;99.90
25753;DHT22;13600;50.816;4.416;2023-07-13T07:35:29;21.80;99.90
25753;DHT22;13600;50.816;4.416;2023-07-13T07:37:55;22.20;99.90
25753;DHT22;13600;50.816;4.416;2023-07-13T07:40:21;22.10;99.90
25753;DHT22;13600;50.816;4.416;2023-07-13T07:42:46;22.00;99.90
25753;DHT22;13600;50.816;4.416;2023-07-13T07:45:12;22.30;99.90
25753;DHT22;13600;50.816;4.416;2023-07-13T07:47:38;23.20;99.90
25753;DHT22;13600;50.816;4.416;2023-07-13T07:50:04;23.50;99.90
25753;DHT22;13600;50.816;4.416;2023-07-13T07:52:30;23.10;99.90
25753;DHT22;13600;50.816;4.416;2023-07-13T07:54:55;23.20;99.90
25753;DHT22;13600;50.816;4.416;2023-07-13T07:57:21;23.70;99.90
25753;DHT22;13600;50.816;4.416;2023-07-13T07:59:47;24.50;99.90
25753;DHT22;13600;50.816;4.416;2023-07-13T08:02:13;25.20;99.90
25753;DHT22;13600;50.816;4.416;2023-07-13T08:04:39;25.70;99.90
25753;DHT22;13600;50.816;4.416;2023-07-13T08:07:05;27.70;99.90
25753;DHT22;13600;50.816;4.416;2023-07-13T08:09:31;27.40;99.90
25753;DHT22;13600;50.816;4.416;2023-07-13T08:11:57;27.40;99.90
25753;DHT22;13600;50.816;4.416;2023-07-13T08:14:23;27.40;99.90
25753;DHT22;13600;50.816;4.416;2023-07-13T08:16:48;27.40;99.90
25753;DHT22;13600;50.816;4.416;2023-07-13T08:19:14;27.20;99.90
25753;DHT22;13600;50.816;4.416;2023-07-13T08:21:41;26.70;99.90
25753;DHT22;13600;50.816;4.416;2023-07-13T08:24:08;26.80;99.90
25753;DHT22;13600;50.816;4.416;2023-07-13T08:26:34;27.60;99.90
25753;DHT22;13600;50.816;4.416;2023-07-13T08:29:00;28.20;99.90
25753;DHT22;13600;50.816;4.416;2023-07-13T08:31:25;28.50;99.90
25753;DHT22;13600;50.816;4.416;2023-07-13T08:33:51;29.40;99.90
25753;DHT22;13600;50.816;4.416;2023-07-13T08:36:16;28.40;99.90
25753;DHT22;13600;50.816;4.416;2023-07-13T08:38:42;28.80;99.90
25753;DHT22;13600;50.816;4.416;2023-07-13T08:41:13;28.00;99.90
25753;DHT22;13600;50.816;4.416;2023-07-13T08:43:41;27.90;99.90
25753;DHT22;13600;50.816;4.416;2023-07-13T08:46:34;26.40;99.90
25753;DHT22;13600;50.816;4.416;2023-07-13T08:49:01;27.30;99.90
25753;DHT22;13600;50.816;4.416;2023-07-13T08:51:46;28.00;99.90
25753;DHT22;13600;50.816;4.416;2023-07-13T08:54:32;27.70;99.90
25753;DHT22;13600;50.816;4.416;2023-07-13T08:57:02;28.80;99.10
25753;DHT22;13600;50.816;4.416;2023-07-13T08:59:30;29.70;98.00
25753;DHT22;13600;50.816;4.416;2023-07-13T09:09:55;30.70;91.10
25753;DHT22;13600;50.816;4.416;2023-07-13T09:12:44;30.10;92.00
25753;DHT22;13600;50.816;4.416;2023-07-13T09:17:52;29.50;94.20
25753;DHT22;13600;50.816;4.416;2023-07-13T09:20:31;30.50;94.40
25753;DHT22;13600;50.816;4.416;2023-07-13T09:23:03;31.90;90.90
25753;DHT22;13600;50.816;4.416;2023-07-13T09:25:33;30.20;90.90
25753;DHT22;13600;50.816;4.416;2023-07-13T09:28:05;30.80;91.50
25753;DHT22;13600;50.816;4.416;2023-07-13T09:33:22;31.30;90.00
25753;DHT22;13600;50.816;4.416;2023-07-13T09:35:48;31.20;90.00
25753;DHT22;13600;50.816;4.416;2023-07-13T09:38:18;31.00;86.00
25753;DHT22;13600;50.816;4.416;2023-07-13T09:46:35;27.80;93.70
25753;DHT22;13600;50.816;4.416;2023-07-13T09:49:00;26.80;97.10
25753;DHT22;13600;50.816;4.416;2023-07-13T09:51:26;28.20;96.10
25753;DHT22;13600;50.816;4.416;2023-07-13T09:53:52;29.20;93.30
25753;DHT22;13600;50.816;4.416;2023-07-13T09:56:27;28.70;93.90
25753;DHT22;13600;50.816;4.416;2023-07-13T09:58:53;27.60;94.80
25753;DHT22;13600;50.816;4.416;2023-07-13T10:01:35;28.80;94.20
25753;DHT22;13600;50.816;4.416;2023-07-13T10:04:02;29.60;93.20
25753;DHT22;13600;50.816;4.416;2023-07-13T10:06:35;30.30;90.90
25753;DHT22;13600;50.816;4.416;2023-07-13T10:09:00;29.70;91.00
25753;DHT22;13600;50.816;4.416;2023-07-13T10:11:29;30.10;91.00
25753;DHT22;13600;50.816;4.416;2023-07-13T10:14:07;29.20;90.40
25753;DHT22;13600;50.816;4.416;2023-07-13T10:16:35;28.80;91.50
25753;DHT22;13600;50.816;4.416;2023-07-13T10:19:25;27.80;92.80
25753;DHT22;13600;50.816;4.416;2023-07-13T10:22:24;26.90;94.90
25753;DHT22;13600;50.816;4.416;2023-07-13T10:24:53;27.30;96.10
25753;DHT22;13600;50.816;4.416;2023-07-13T10:27:27;28.10;94.20
25753;DHT22;13600;50.816;4.416;2023-07-13T10:30:15;29.70;92.50
25753;DHT22;13600;50.816;4.416;2023-07-13T10:32:43;31.70;88.50
25753;DHT22;13600;50.816;4.416;2023-07-13T10:35:14;32.90;83.70
25753;DHT22;13600;50.816;4.416;2023-07-13T10:37:52;33.40;77.20
25753;DHT22;13600;50.816;4.416;2023-07-13T10:40:34;33.40;75.80
25753;DHT22;13600;50.816;4.416;2023-07-13T10:43:02;32.90;77.00
25753;DHT22;13600;50.816;4.416;2023-07-13T10:45:34;33.90;74.90
25753;DHT22;13600;50.816;4.416;2023-07-13T10:48:01;33.30;77.20
25753;DHT22;13600;50.816;4.416;2023-07-13T10:50:29;32.00;77.40
25753;DHT22;13600;50.816;4.416;2023-07-13T10:53:15;30.20;81.50
25753;DHT22;13600;50.816;4.416;2023-07-13T10:58:36;28.40;87.60
25753;DHT22;13600;50.816;4.416;2023-07-13T11:01:18;29.70;85.00
25753;DHT22;13600;50.816;4.416;2023-07-13T11:08:52;31.20;82.00
25753;DHT22;13600;50.816;4.416;2023-07-13T11:11:38;32.30;80.10
25753;DHT22;13600;50.816;4.416;2023-07-13T11:14:25;33.40;76.70
25753;DHT22;13600;50.816;4.416;2023-07-13T11:16:51;34.10;73.30
25753;DHT22;13600;50.816;4.416;2023-07-13T11:24:57;34.30;69.60
25753;DHT22;13600;50.816;4.416;2023-07-13T11:38:22;33.10;70.70
25753;DHT22;13600;50.816;4.416;2023-07-13T11:40:50;32.10;71.60
25753;DHT22;13600;50.816;4.416;2023-07-13T11:43:17;30.70;75.90
25753;DHT22;13600;50.816;4.416;2023-07-13T11:45:45;29.90;76.50
25753;DHT22;13600;50.816;4.416;2023-07-13T11:48:26;28.70;78.10
25753;DHT22;13600;50.816;4.416;2023-07-13T11:50:59;28.10;81.90
25753;DHT22;13600;50.816;4.416;2023-07-13T11:53:28;27.80;83.90
25753;DHT22;13600;50.816;4.416;2023-07-13T11:55:55;26.90;85.00
25753;DHT22;13600;50.816;4.416;2023-07-13T11:58:24;26.80;86.70
25753;DHT22;13600;50.816;4.416;2023-07-13T12:00:50;26.50;88.20
25753;DHT22;13600;50.816;4.416;2023-07-13T12:03:21;26.30;88.10
25753;DHT22;13600;50.816;4.416;2023-07-13T12:05:58;26.10;90.20
25753;DHT22;13600;50.816;4.416;2023-07-13T12:08:25;25.70;91.00
25753;DHT22;13600;50.816;4.416;2023-07-13T12:11:00;25.70;91.60
25753;DHT22;13600;50.816;4.416;2023-07-13T12:13:27;25.60;91.90
25753;DHT22;13600;50.816;4.416;2023-07-13T12:15:56;25.50;92.00
25753;DHT22;13600;50.816;4.416;2023-07-13T12:18:23;25.40;92.70
25753;DHT22;13600;50.816;4.416;2023-07-13T12:20:57;25.50;93.10
25753;DHT22;13600;50.816;4.416;2023-07-13T12:23:32;26.10;92.10
25753;DHT22;13600;50.816;4.416;2023-07-13T12:26:01;26.40;92.20
25753;DHT22;13600;50.816;4.416;2023-07-13T12:31:06;26.70;91.60
25753;DHT22;13600;50.816;4.416;2023-07-13T12:33:32;26.70;91.30
25753;DHT22;13600;50.816;4.416;2023-07-13T12:36:03;26.30;91.50
25753;DHT22;13600;50.816;4.416;2023-07-13T12:38:31;25.60;91.90
25753;DHT22;13600;50.816;4.416;2023-07-13T12:40:57;25.00;95.40
25753;DHT22;13600;50.816;4.416;2023-07-13T12:43:25;24.90;96.80
25753;DHT22;13600;50.816;4.416;2023-07-13T12:46:03;25.00;98.40
25753;DHT22;13600;50.816;4.416;2023-07-13T12:48:29;25.20;99.10
25753;DHT22;13600;50.816;4.416;2023-07-13T12:50:55;25.20;99.90
25753;DHT22;13600;50.816;4.416;2023-07-13T12:53:30;25.00;99.90
25753;DHT22;13600;50.816;4.416;2023-07-13T12:56:01;24.40;99.90
25753;DHT22;13600;50.816;4.416;2023-07-13T12:58:40;23.90;99.90
25753;DHT22;13600;50.816;4.416;2023-07-13T13:01:11;23.40;99.90
25753;DHT22;13600;50.816;4.416;2023-07-13T13:03:46;23.20;99.90
25753;DHT22;13600;50.816;4.416;2023-07-13T13:08:46;23.00;99.90
25753;DHT22;13600;50.816;4.416;2023-07-13T13:11:21;23.10;99.90
25753;DHT22;13600;50.816;4.416;2023-07-13T13:13:49;23.50;99.90
25753;DHT22;13600;50.816;4.416;2023-07-13T13:18:50;27.90;99.90
25753;DHT22;13600;50.816;4.416;2023-07-13T13:21:18;30.60;99.90
25753;DHT22;13600;50.816;4.416;2023-07-13T13:23:45;30.60;99.90
25753;DHT22;13600;50.816;4.416;2023-07-13T13:26:14;29.60;99.90
25753;DHT22;13600;50.816;4.416;2023-07-13T13:28:42;28.80;99.90
25753;DHT22;13600;50.816;4.416;2023-07-13T13:31:10;28.20;99.90
25753;DHT22;13600;50.816;4.416;2023-07-13T13:33:38;27.80;99.90
25753;DHT22;13600;50.816;4.416;2023-07-13T13:36:19;28.00;99.90
25753;DHT22;13600;50.816;4.416;2023-07-13T13:38:45;28.60;99.90
25753;DHT22;13600;50.816;4.416;2023-07-13T13:41:13;29.20;99.90
25753;DHT22;13600;50.816;4.416;2023-07-13T13:43:40;29.40;99.90
25753;DHT22;13600;50.816;4.416;2023-07-13T13:46:25;30.20;99.90
25753;DHT22;13600;50.816;4.416;2023-07-13T13:48:51;30.80;98.30
25753;DHT22;13600;50.816;4.416;2023-07-13T13:51:21;31.20;94.50
25753;DHT22;13600;50.816;4.416;2023-07-13T13:53:48;31.60;94.80
25753;DHT22;13600;50.816;4.416;2023-07-13T13:56:14;31.20;91.30
25753;DHT22;13600;50.816;4.416;2023-07-13T13:58:41;30.20;92.80
25753;DHT22;13600;50.816;4.416;2023-07-13T14:01:21;30.00;93.80
25753;DHT22;13600;50.816;4.416;2023-07-13T14:03:48;29.70;95.20
25753;DHT22;13600;50.816;4.416;2023-07-13T14:06:17;29.10;94.10
25753;DHT22;13600;50.816;4.416;2023-07-13T14:08:43;28.40;96.00
25753;DHT22;13600;50.816;4.416;2023-07-13T14:11:13;27.80;95.80
25753;DHT22;13600;50.816;4.416;2023-07-13T14:13:43;27.20;97.10
25753;DHT22;13600;50.816;4.416;2023-07-13T14:16:17;27.00;98.70
25753;DHT22;13600;50.816;4.416;2023-07-13T14:18:44;26.80;99.60
25753;DHT22;13600;50.816;4.416;2023-07-13T14:21:19;26.70;99.90
25753;DHT22;13600;50.816;4.416;2023-07-13T14:23:46;26.40;99.90
25753;DHT22;13600;50.816;4.416;2023-07-13T14:26:21;26.00;99.90
25753;DHT22;13600;50.816;4.416;2023-07-13T14:28:53;25.90;99.90
25753;DHT22;13600;50.816;4.416;2023-07-13T14:31:21;25.30;99.90
25753;DHT22;13600;50.816;4.416;2023-07-13T14:33:47;25.00;99.90
25753;DHT22;13600;50.816;4.416;2023-07-13T14:36:38;24.60;99.90
25753;DHT22;13600;50.816;4.416;2023-07-13T14:39:16;24.20;99.90
25753;DHT22;13600;50.816;4.416;2023-07-13T14:41:43;24.10;99.90
25753;DHT22;13600;50.816;4.416;2023-07-13T14:44:17;24.10;99.90
25753;DHT22;13600;50.816;4.416;2023-07-13T14:46:44;24.00;99.90
25753;DHT22;13600;50.816;4.416;2023-07-13T14:49:28;24.30;99.90
25753;DHT22;13600;50.816;4.416;2023-07-13T14:52:00;24.70;99.90
25753;DHT22;13600;50.816;4.416;2023-07-13T14:54:26;25.10;99.90
25753;DHT22;13600;50.816;4.416;2023-07-13T14:56:52;25.20;99.90
25753;DHT22;13600;50.816;4.416;2023-07-13T14:59:18;25.20;99.90
25753;DHT22;13600;50.816;4.416;2023-07-13T15:01:48;25.20;99.90
25753;DHT22;13600;50.816;4.416;2023-07-13T15:04:14;25.40;99.90
25753;DHT22;13600;50.816;4.416;2023-07-13T15:07:00;25.70;99.90
25753;DHT22;13600;50.816;4.416;2023-07-13T15:09:28;26.10;99.90
25753;DHT22;13600;50.816;4.416;2023-07-13T15:11:58;26.10;99.90
25753;DHT22;13600;50.816;4.416;2023-07-13T15:14:25;25.90;99.90
25753;DHT22;13600;50.816;4.416;2023-07-13T15:16:54;26.00;99.90
25753;DHT22;13600;50.816;4.416;2023-07-13T15:19:21;25.90;99.90
25753;DHT22;13600;50.816;4.416;2023-07-13T15:21:49;26.00;99.90
25753;DHT22;13600;50.816;4.416;2023-07-13T15:24:16;26.20;99.90
25753;DHT22;13600;50.816;4.416;2023-07-13T15:26:42;25.90;99.90
25753;DHT22;13600;50.816;4.416;2023-07-13T15:29:11;26.10;99.90
25753;DHT22;13600;50.816;4.416;2023-07-13T15:31:37;26.50;99.90
25753;DHT22;13600;50.816;4.416;2023-07-13T15:34:13;26.60;99.90
25753;DHT22;13600;50.816;4.416;2023-07-13T15:36:39;26.60;99.90
25753;DHT22;13600;50.816;4.416;2023-07-13T15:39:05;26.60;99.90
25753;DHT22;13600;50.816;4.416;2023-07-13T15:41:31;26.30;99.90
25753;DHT22;13600;50.816;4.416;2023-07-13T15:43:58;26.20;99.90
25753;DHT22;13600;50.816;4.416;2023-07-13T15:46:26;26.30;99.90
25753;DHT22;13600;50.816;4.416;2023-07-13T15:48:53;26.40;99.90
25753;DHT22;13600;50.816;4.416;2023-07-13T15:51:23;26.10;99.90
25753;DHT22;13600;50.816;4.416;2023-07-13T15:53:49;25.90;99.90
25753;DHT22;13600;50.816;4.416;2023-07-13T15:56:20;25.80;99.90
25753;DHT22;13600;50.816;4.416;2023-07-13T15:58:48;26.00;99.90
25753;DHT22;13600;50.816;4.416;2023-07-13T16:01:14;26.10;99.90
25753;DHT22;13600;50.816;4.416;2023-07-13T16:03:40;26.10;99.90
25753;DHT22;13600;50.816;4.416;2023-07-13T16:06:27;25.90;99.90
25753;DHT22;13600;50.816;4.416;2023-07-13T16:08:54;25.90;99.90
25753;DHT22;13600;50.816;4.416;2023-07-13T16:11:26;25.80;99.60
25753;DHT22;13600;50.816;4.416;2023-07-13T16:13:53;25.60;99.80
25753;DHT22;13600;50.816;4.416;2023-07-13T16:16:21;25.70;99.90
25753;DHT22;13600;50.816;4.416;2023-07-13T16:18:53;25.80;99.90
25753;DHT22;13600;50.816;4.416;2023-07-13T16:21:22;25.70;99.90
25753;DHT22;13600;50.816;4.416;2023-07-13T16:23:50;25.50;99.90
25753;DHT22;13600;50.816;4.416;2023-07-13T16:28:53;25.90;99.90
25753;DHT22;13600;50.816;4.416;2023-07-13T16:31:31;25.70;99.90
25753;DHT22;13600;50.816;4.416;2023-07-13T16:33:58;25.50;99.90
25753;DHT22;13600;50.816;4.416;2023-07-13T16:36:28;25.20;99.90